This is the latest recevied weather packets stored in our database for station/object KE0FIN. If no packets are shown the sender has not sent any weather packets the latest 1 day(s).
| Time | Temp. | Humidity | Pressure | Rain* | Wind** | Luminosity | Snow |
|---|---|---|---|---|---|---|---|
| 1778029023 | 9.44° C | 87% | 1063.9 hPa | 0 mm | 0 m/s | 3 W/m² | - |
| 1778028720 | 9.44° C | 86% | 1064 hPa | 0 mm | 0 m/s | 2 W/m² | - |
| 1778028415 | 9.44° C | 84% | 1063.8 hPa | 0 mm | 0 m/s | 5 W/m² | - |
| 1778028112 | 10° C | 82% | 1063.7 hPa | 1.78 mm | 0 m/s | 10 W/m² | - |
| 1778027808 | 10° C | 80% | 1063.5 hPa | 0 mm | 0 m/s | 21 W/m² | - |
| 1778027505 | 10° C | 77% | 1063.4 hPa | 1.78 mm | 0.89 m/s, 101° | 13 W/m² | - |
| 1778027201 | 10.56° C | 76% | 1063.5 hPa | 1.78 mm | 0 m/s | 8 W/m² | - |
| 1778026897 | 10.56° C | 74% | 1063.7 hPa | 0 mm | 0.45 m/s, 124° | 5 W/m² | - |
| 1778026593 | 11.11° C | 71% | 1063.6 hPa | 0 mm | 0.89 m/s, 118° | 7 W/m² | - |
| 1778026291 | 11.67° C | 66% | 1063.5 hPa | 0 mm | 0.89 m/s, 88° | 10 W/m² | - |
| 1778025988 | 11.67° C | 63% | 1063.4 hPa | 0 mm | 0.89 m/s, 89° | 12 W/m² | - |
| 1778025686 | 11.67° C | 63% | 1063.4 hPa | 0 mm | 0.45 m/s, 117° | 10 W/m² | - |
| 1778025383 | 11.67° C | 62% | 1063.4 hPa | 0 mm | 0 m/s | 17 W/m² | - |
| 1778025080 | 11.67° C | 62% | 1063.3 hPa | 0 mm | 0.89 m/s, 110° | 34 W/m² | - |
| 1778024777 | 11.67° C | 62% | 1063.5 hPa | 0 mm | 0 m/s | 31 W/m² | - |
| 1778024473 | 11.67° C | 61% | 1063.6 hPa | 0 mm | 1.34 m/s, 90° | 33 W/m² | - |
| 1778024171 | 11.67° C | 61% | 1063.3 hPa | 0 mm | 0 m/s | 32 W/m² | - |
| 1778023868 | 11.67° C | 60% | 1063.5 hPa | 0 mm | 0.89 m/s, 108° | 37 W/m² | - |
| 1778023566 | 11.67° C | 61% | 1063.3 hPa | 0 mm | 0.89 m/s, 80° | 40 W/m² | - |
| 1778023263 | 11.67° C | 60% | 1063.3 hPa | 0 mm | 0.45 m/s, 117° | 29 W/m² | - |
| 1778022960 | 11.67° C | 58% | 1063.2 hPa | 0 mm | 1.34 m/s, 49° | 34 W/m² | - |
| 1778022659 | 11.67° C | 56% | 1063.2 hPa | 0 mm | 0 m/s | 43 W/m² | - |
| 1778022356 | 11.67° C | 57% | 1063.1 hPa | 0 mm | 0.89 m/s, 117° | 55 W/m² | - |
| 1778022052 | 11.67° C | 58% | 1063 hPa | 0 mm | 1.34 m/s, 89° | 37 W/m² | - |
| 1778021749 | 12.22° C | 59% | 1062.9 hPa | 0 mm | 0.89 m/s, 123° | 32 W/m² | - |
* Rain latest hour (hover to see other rain measurements)
** Current wind speed in m/s (hover to see current wind gust speed)